Terminal Aerodrome Forecast
Issued by NWS Wilmington, OH

Current Version | Previous Version | Graphics & Text | Print | Product List | Glossary On
Versions: 1 2 3 4 5 6 7 8 9 10 11 12 13 14 15 16 17 18 19 20 21 22 23 24 25 26 27 28
520
FTUS41 KILN 201134
TAFCVG
TAF
KCVG 201134Z 2012/2118 14009KT P6SM VCSH OVC050
     FM201400 17007KT 6SM -SHRA VCTS OVC050CB
      TEMPO 2014/2016 4SM -TSRA BR OVC028CB
     FM201600 18009KT P6SM BKN070
     FM210000 VRB03KT 4SM -SHRA BR OVC035
     FM210200 VRB03KT 5SM BR OVC015
     FM210500 36005KT 5SM BR OVC007=

USA.gov is the U.S. government's official web portal to all federal, state and local government web resources and services.